createdAt,value
2024-04-24T02:07:52.000Z,64.17
2024-04-24T02:12:37.000Z,64.22
2024-04-24T02:23:23.000Z,64.52
2024-04-24T02:36:32.000Z,64.27
2024-04-24T02:52:40.000Z,64.44
2024-04-24T02:56:24.000Z,64.44
2024-04-24T03:06:07.000Z,64.48
2024-04-24T03:10:50.000Z,64.28
2024-04-24T03:12:15.000Z,64.07
2024-04-24T03:13:07.000Z,64.06
2024-04-24T03:14:16.000Z,64.09
2024-04-24T03:15:20.000Z,63.98
2024-04-24T03:16:09.000Z,64.28
2024-04-24T03:17:07.000Z,64.17
2024-04-24T03:18:09.000Z,63.92
2024-04-24T03:19:09.000Z,64
2024-04-24T03:20:15.000Z,64.15
2024-04-24T03:21:08.000Z,64.05
2024-04-24T03:22:08.000Z,64.09
2024-04-24T03:23:08.000Z,64.2
2024-04-24T03:24:11.000Z,64.18
2024-04-24T03:25:08.000Z,64.14
2024-04-24T03:26:10.000Z,64.23
2024-04-24T03:27:10.000Z,63.98
2024-04-24T03:28:11.000Z,63.97
2024-04-24T03:29:10.000Z,64.15
2024-04-24T03:30:10.000Z,63.89
2024-04-24T03:31:08.000Z,63.92
2024-04-24T03:32:10.000Z,63.93
2024-04-24T03:33:13.000Z,63.76
2024-04-24T03:34:11.000Z,63.7
2024-04-24T03:35:12.000Z,63.9
2024-04-24T03:36:11.000Z,63.69
2024-04-24T03:37:14.000Z,63.69
2024-04-24T03:38:19.000Z,63.84
2024-04-24T03:39:07.000Z,63.97
2024-04-24T03:40:06.000Z,63.97
2024-04-24T03:41:04.000Z,63.73
2024-04-24T03:42:05.000Z,63.92
2024-04-24T03:43:04.000Z,63.84
2024-04-24T03:44:04.000Z,63.79
2024-04-24T03:45:05.000Z,63.76
2024-04-24T03:46:04.000Z,63.83
2024-04-24T03:47:05.000Z,63.7
2024-04-24T03:48:06.000Z,63.77
2024-04-24T03:49:04.000Z,63.78
2024-04-24T03:50:09.000Z,63.62
2024-04-24T03:51:04.000Z,63.8
2024-04-24T03:52:05.000Z,63.59
2024-04-24T03:53:04.000Z,63.77
2024-04-24T03:54:04.000Z,63.86
2024-04-24T03:55:05.000Z,63.81
2024-04-24T03:56:06.000Z,63.83
2024-04-24T03:57:09.000Z,63.79
2024-04-24T03:58:04.000Z,63.71
2024-04-24T03:59:04.000Z,63.94
2024-04-24T04:00:22.000Z,63.74
2024-04-24T04:01:26.000Z,63.96
2024-04-24T04:02:22.000Z,63.73
2024-04-24T04:03:25.000Z,63.76
2024-04-24T04:04:22.000Z,63.69
2024-04-24T04:05:22.000Z,63.71
2024-04-24T04:06:24.000Z,63.64
2024-04-24T04:07:25.000Z,63.78
2024-04-24T04:08:24.000Z,63.57
2024-04-24T04:09:22.000Z,63.6
2024-04-24T04:10:37.000Z,63.57
2024-04-24T04:12:16.000Z,63.57
2024-04-24T04:29:06.000Z,63.56
2024-04-24T04:38:36.000Z,64.06
2024-04-24T06:00:22.000Z,63.92
2024-04-24T06:01:22.000Z,64.15
2024-04-24T06:02:22.000Z,64.01
2024-04-24T06:03:22.000Z,64.39
2024-04-24T06:04:22.000Z,64.13
2024-04-24T06:05:22.000Z,64.22
2024-04-24T06:06:22.000Z,64.02
2024-04-24T06:07:22.000Z,64.04
2024-04-24T06:08:22.000Z,64.01
2024-04-24T06:09:22.000Z,63.83
2024-04-24T06:10:22.000Z,64.02
2024-04-24T06:11:22.000Z,64.01
2024-04-24T06:12:22.000Z,63.96
2024-04-24T06:13:22.000Z,63.84
2024-04-24T06:14:22.000Z,63.85
2024-04-24T06:15:22.000Z,63.7
2024-04-24T06:16:22.000Z,63.61
2024-04-24T06:17:22.000Z,63.68
2024-04-24T06:18:22.000Z,63.34
2024-04-24T06:19:24.000Z,63.57
2024-04-24T06:20:25.000Z,63.27
2024-04-24T06:21:22.000Z,63.02
2024-04-24T06:22:22.000Z,63.09
2024-04-24T06:23:22.000Z,62.88
2024-04-24T06:24:22.000Z,62.85
2024-04-24T06:25:22.000Z,62.7
2024-04-24T06:26:27.000Z,62.47
2024-04-24T06:27:23.000Z,62.43
2024-04-24T06:28:24.000Z,62.49
2024-04-24T06:29:22.000Z,61.9
2024-04-24T06:30:22.000Z,61.65
2024-04-24T06:31:22.000Z,61.78
2024-04-24T06:32:22.000Z,61.48
2024-04-24T06:33:22.000Z,61.47
2024-04-24T06:34:22.000Z,61.39
2024-04-24T06:35:22.000Z,61.5
2024-04-24T06:36:24.000Z,61.18
2024-04-24T06:37:22.000Z,61.32
2024-04-24T06:38:23.000Z,61.2
2024-04-24T06:39:27.000Z,60.93
2024-04-24T06:40:22.000Z,60.8
2024-04-24T06:41:22.000Z,61.09
2024-04-24T06:42:22.000Z,60.8
2024-04-24T06:43:22.000Z,61.02
2024-04-24T06:44:24.000Z,61.02
2024-04-24T06:45:22.000Z,60.99
2024-04-24T06:46:25.000Z,60.89
2024-04-24T06:47:22.000Z,61.03
2024-04-24T06:48:22.000Z,60.9
2024-04-24T06:49:22.000Z,60.75
2024-04-24T06:50:22.000Z,60.83
2024-04-24T06:51:22.000Z,60.25
2024-04-24T06:52:22.000Z,60.3
2024-04-24T06:53:22.000Z,60.46
2024-04-24T06:54:22.000Z,60.12
2024-04-24T06:55:24.000Z,60.48
2024-04-24T06:56:22.000Z,59.77
2024-04-24T06:57:22.000Z,59.86
2024-04-24T06:58:22.000Z,59.71
2024-04-24T06:59:24.000Z,59.73
2024-04-24T07:00:22.000Z,59.78
2024-04-24T07:01:22.000Z,59.73
2024-04-24T07:02:22.000Z,59.28
2024-04-24T07:03:24.000Z,59.23
2024-04-24T07:04:22.000Z,59.4
2024-04-24T07:05:22.000Z,59.2
2024-04-24T07:06:22.000Z,59.26
2024-04-24T07:07:22.000Z,59.21
2024-04-24T07:08:25.000Z,59.14
2024-04-24T07:09:22.000Z,59.21
2024-04-24T07:10:22.000Z,58.75
2024-04-24T07:11:22.000Z,58.37
2024-04-24T07:12:24.000Z,58.22
2024-04-24T07:13:22.000Z,58.12
2024-04-24T07:14:27.000Z,57.89
2024-04-24T07:15:22.000Z,58.26
2024-04-24T07:16:25.000Z,58.15
2024-04-24T07:17:27.000Z,58.06
2024-04-24T07:18:22.000Z,58.26
2024-04-24T07:19:25.000Z,58.17
2024-04-24T07:20:22.000Z,58.19
2024-04-24T07:21:22.000Z,58.17
2024-04-24T07:22:22.000Z,57.91
2024-04-24T07:23:22.000Z,58.05
2024-04-24T07:24:22.000Z,58.1
2024-04-24T07:25:22.000Z,57.79
2024-04-24T07:26:22.000Z,57.99
2024-04-24T07:27:22.000Z,57.37
2024-04-24T07:28:22.000Z,57.14
2024-04-24T07:29:22.000Z,57.11
2024-04-24T07:30:23.000Z,56.7
2024-04-24T07:31:22.000Z,56.36
2024-04-24T07:32:25.000Z,56.43
2024-04-24T07:33:23.000Z,56.02
2024-04-24T07:34:22.000Z,56.15
2024-04-24T07:35:22.000Z,56.2
2024-04-24T07:36:22.000Z,56.07
2024-04-24T07:37:22.000Z,56.35
2024-04-24T07:38:22.000Z,55.95
2024-04-24T07:39:22.000Z,56.38
2024-04-24T07:40:25.000Z,56
2024-04-24T07:41:22.000Z,56.33
2024-04-24T07:42:22.000Z,56.1
2024-04-24T07:43:22.000Z,55.97
2024-04-24T07:44:22.000Z,56.16
2024-04-24T07:45:24.000Z,56.09
2024-04-24T07:46:26.000Z,55.94
2024-04-24T07:47:22.000Z,56.07
2024-04-24T07:48:22.000Z,55.74
2024-04-24T07:49:22.000Z,55.55
2024-04-24T07:50:22.000Z,55.34
2024-04-24T07:51:22.000Z,55.71
2024-04-24T07:52:22.000Z,55.53
2024-04-24T07:53:22.000Z,55.71
2024-04-24T07:54:22.000Z,55.48
2024-04-24T07:55:22.000Z,55.36
2024-04-24T07:56:23.000Z,55.6
2024-04-24T07:57:22.000Z,55.41
2024-04-24T07:58:22.000Z,55.53
2024-04-24T07:59:25.000Z,55.42
2024-04-24T08:00:24.000Z,55.21
2024-04-24T08:01:23.000Z,55.2
2024-04-24T08:02:23.000Z,55.21
2024-04-24T08:03:23.000Z,55.16
2024-04-24T08:04:23.000Z,55.48
2024-04-24T08:05:23.000Z,55.56
2024-04-24T08:06:23.000Z,55.6
2024-04-24T08:07:22.000Z,55.39
2024-04-24T08:08:22.000Z,55.73
2024-04-24T08:09:23.000Z,55.82
2024-04-24T08:10:23.000Z,55.43
2024-04-24T08:11:23.000Z,55.32
2024-04-24T08:12:23.000Z,54.91
2024-04-24T08:13:23.000Z,54.99
2024-04-24T08:14:22.000Z,54.82
2024-04-24T08:15:23.000Z,54.82
2024-04-24T08:16:23.000Z,54.87
2024-04-24T08:17:23.000Z,54.96
2024-04-24T08:18:22.000Z,54.95
2024-04-24T08:19:23.000Z,55.17
2024-04-24T08:20:25.000Z,55.13
2024-04-24T08:21:23.000Z,55.43
2024-04-24T08:22:23.000Z,55.42
2024-04-24T08:23:23.000Z,55.5
2024-04-24T08:24:23.000Z,55.5
2024-04-24T08:25:30.000Z,55.59
2024-04-24T08:26:27.000Z,55.37
2024-04-24T08:27:23.000Z,55.46
2024-04-24T08:28:24.000Z,55.99
2024-04-24T08:29:23.000Z,55.84
2024-04-24T08:30:25.000Z,55.92
2024-04-24T08:31:22.000Z,56.09
2024-04-24T08:32:23.000Z,56.14
2024-04-24T08:33:23.000Z,56.08
2024-04-24T08:34:23.000Z,55.99
2024-04-24T08:35:23.000Z,55.93
2024-04-24T08:36:23.000Z,56.18
2024-04-24T08:37:23.000Z,56.44
2024-04-24T08:38:25.000Z,56.26
2024-04-24T08:39:23.000Z,56.01
2024-04-24T08:40:23.000Z,55.87
2024-04-24T08:41:23.000Z,56.19
2024-04-24T08:42:26.000Z,55.72
2024-04-24T08:43:25.000Z,55.86
2024-04-24T08:44:28.000Z,55.81
2024-04-24T08:45:24.000Z,55.94
2024-04-24T08:46:25.000Z,56.03
2024-04-24T08:47:24.000Z,55.6
2024-04-24T08:48:23.000Z,55.38
2024-04-24T08:49:25.000Z,55.23
2024-04-24T08:50:24.000Z,54.27
2024-04-24T08:51:27.000Z,54.21
2024-04-24T08:52:25.000Z,54.17
2024-04-24T08:53:29.000Z,53.91
2024-04-24T08:54:29.000Z,53.42
2024-04-24T08:55:24.000Z,53.38
2024-04-24T08:56:29.000Z,53.1
2024-04-24T08:57:27.000Z,53.03
2024-04-24T08:58:29.000Z,52.99
2024-04-24T08:59:29.000Z,52.98
2024-04-24T09:00:24.000Z,52.8
2024-04-24T09:01:29.000Z,52.53
2024-04-24T09:02:35.000Z,52.5
2024-04-24T09:03:32.000Z,52.46
2024-04-24T09:04:25.000Z,52.62
2024-04-24T09:05:26.000Z,51.93
2024-04-24T09:06:23.000Z,51.67
2024-04-24T09:07:26.000Z,51.88
2024-04-24T09:08:24.000Z,51.88
2024-04-24T09:09:26.000Z,51.65
2024-04-24T09:10:23.000Z,51.84
2024-04-24T09:11:24.000Z,51.83
2024-04-24T09:12:25.000Z,51.62
2024-04-24T09:13:25.000Z,51.51
2024-04-24T09:14:29.000Z,51.61
2024-04-24T09:15:25.000Z,51.63
2024-04-24T09:16:26.000Z,51.72
2024-04-24T09:17:28.000Z,51.5
2024-04-24T09:18:23.000Z,51.56
2024-04-24T09:19:23.000Z,51.43
2024-04-24T09:20:25.000Z,51.61
2024-04-24T09:21:27.000Z,51.32
2024-04-24T09:22:23.000Z,51.26
2024-04-24T09:23:25.000Z,51.15
2024-04-24T09:24:25.000Z,50.34
2024-04-24T09:25:23.000Z,50.41
2024-04-24T09:26:26.000Z,50.67
2024-04-24T09:27:24.000Z,50.6
2024-04-24T09:28:24.000Z,50.27
2024-04-24T09:29:23.000Z,50.41
2024-04-24T09:30:26.000Z,50.45
2024-04-24T09:31:28.000Z,50.83
2024-04-24T09:32:23.000Z,51.02
2024-04-24T09:33:22.000Z,50.69
2024-04-24T09:34:25.000Z,50.98
2024-04-24T09:35:24.000Z,51.13
2024-04-24T09:36:26.000Z,50.89
2024-04-24T09:37:25.000Z,51.09
2024-04-24T09:38:23.000Z,50.88
2024-04-24T09:39:24.000Z,50.9
2024-04-24T09:40:24.000Z,50.76
2024-04-24T09:41:23.000Z,50.74
2024-04-24T09:42:23.000Z,50.72
2024-04-24T09:43:23.000Z,50.62
2024-04-24T09:44:30.000Z,50.76
2024-04-24T09:45:27.000Z,50.15
2024-04-24T09:46:23.000Z,50
2024-04-24T09:47:25.000Z,48.98
2024-04-24T09:48:24.000Z,48.95
2024-04-24T09:49:25.000Z,49.27
2024-04-24T09:50:23.000Z,48.33
2024-04-24T09:51:23.000Z,48.64
2024-04-24T09:52:23.000Z,48.79
2024-04-24T09:53:23.000Z,49.07
2024-04-24T09:54:23.000Z,48.88
2024-04-24T09:55:30.000Z,48.93
2024-04-24T09:56:26.000Z,49.01
2024-04-24T09:57:31.000Z,49.24
2024-04-24T09:58:27.000Z,49.25
2024-04-24T09:59:29.000Z,49.17
2024-04-24T10:00:25.000Z,49.39
2024-04-24T10:01:26.000Z,49.21
2024-04-24T10:02:31.000Z,49.48
2024-04-24T10:03:28.000Z,49.49
2024-04-24T10:04:27.000Z,49.38
2024-04-24T10:05:26.000Z,49.21
2024-04-24T10:06:27.000Z,49.23
2024-04-24T10:07:26.000Z,49.62
2024-04-24T10:08:30.000Z,49.33
2024-04-24T10:09:30.000Z,49.23
2024-04-24T10:14:55.000Z,49.28
2024-04-24T10:20:03.000Z,49.47
2024-04-24T10:21:23.000Z,49.15
2024-04-24T10:22:27.000Z,49.25
2024-04-24T10:23:26.000Z,49.37
2024-04-24T10:24:24.000Z,49.34
2024-04-24T10:25:23.000Z,48.96
2024-04-24T10:26:26.000Z,49.21
2024-04-24T10:27:23.000Z,49.22
2024-04-24T10:28:26.000Z,49.16
2024-04-24T10:29:25.000Z,49.3
2024-04-24T10:31:25.000Z,49.45
2024-04-24T10:32:28.000Z,48.95
2024-04-24T10:33:26.000Z,48.92
2024-04-24T10:34:26.000Z,49.2
2024-04-24T10:35:27.000Z,49.24
2024-04-24T10:36:24.000Z,49.23
2024-04-24T10:37:24.000Z,49.72
2024-04-24T10:38:30.000Z,49.77
2024-04-24T10:42:31.000Z,49.45
2024-04-24T10:46:02.000Z,48.87
2024-04-24T10:51:09.000Z,49.03
2024-04-24T10:56:29.000Z,48.92
2024-04-24T11:13:34.000Z,48.14
2024-04-24T12:00:23.000Z,47.3
2024-04-24T12:01:39.000Z,47.91
2024-04-24T12:02:22.000Z,48.01
2024-04-24T12:04:09.000Z,48.07
2024-04-24T12:05:22.000Z,47.6
2024-04-24T12:06:22.000Z,47.66
2024-04-24T12:07:23.000Z,47.61
2024-04-24T12:09:45.000Z,46.2
2024-04-24T12:11:06.000Z,46.19
2024-04-24T12:12:59.000Z,46.23
2024-04-24T12:13:44.000Z,46.07
2024-04-24T12:14:39.000Z,46.29
2024-04-24T12:15:36.000Z,46.41
2024-04-24T12:16:36.000Z,46.38
2024-04-24T12:17:36.000Z,46.71
2024-04-24T12:18:36.000Z,46.59
2024-04-24T12:19:36.000Z,46.41
2024-04-24T12:21:25.000Z,46.72
2024-04-24T12:22:41.000Z,46.59
2024-04-24T12:23:43.000Z,46.78
2024-04-24T12:38:00.000Z,46.91
2024-04-24T12:40:03.000Z,46.34
2024-04-24T12:41:02.000Z,46.39
2024-04-24T12:42:41.000Z,46.44
2024-04-24T12:43:40.000Z,46.3
2024-04-24T12:44:40.000Z,45.96
2024-04-24T12:45:41.000Z,46
2024-04-24T12:46:41.000Z,46.14
2024-04-24T12:47:43.000Z,46.19
2024-04-24T12:48:40.000Z,45.92
2024-04-24T12:49:41.000Z,46.07
2024-04-24T12:50:40.000Z,45.9
2024-04-24T12:51:40.000Z,45.75
2024-04-24T12:52:41.000Z,45.47
2024-04-24T12:53:40.000Z,45.44
2024-04-24T12:54:40.000Z,45.17
2024-04-24T12:55:41.000Z,44.83
2024-04-24T12:56:42.000Z,44.23
2024-04-24T12:57:40.000Z,44.28
2024-04-24T12:58:40.000Z,44.22
2024-04-24T12:59:41.000Z,44.43
2024-04-24T13:00:40.000Z,44.44
2024-04-24T13:01:40.000Z,44.56
2024-04-24T13:02:42.000Z,44.27
2024-04-24T13:03:40.000Z,44.78
2024-04-24T13:04:40.000Z,44.46
2024-04-24T13:05:41.000Z,44.38
2024-04-24T13:06:43.000Z,44.58
2024-04-24T13:07:41.000Z,44.62
2024-04-24T13:08:41.000Z,44.67
2024-04-24T13:10:56.000Z,44.62
2024-04-24T13:14:11.000Z,44.27
2024-04-24T13:15:11.000Z,44.4
2024-04-24T13:16:11.000Z,44.47
2024-04-24T13:17:11.000Z,44.48
2024-04-24T13:18:16.000Z,44.46
2024-04-24T13:19:18.000Z,44.14
2024-04-24T13:20:11.000Z,43.92
2024-04-24T13:21:11.000Z,43.98
2024-04-24T13:22:11.000Z,44.18
2024-04-24T13:23:11.000Z,44.49
2024-04-24T13:24:17.000Z,44.62
2024-04-24T13:25:11.000Z,44.38
2024-04-24T13:26:11.000Z,44.01
2024-04-24T13:27:11.000Z,44.35
2024-04-24T13:28:14.000Z,44.13
2024-04-24T13:29:11.000Z,44.45
2024-04-24T13:30:12.000Z,44.52
2024-04-24T13:31:11.000Z,44.83
2024-04-24T13:32:11.000Z,44.78
2024-04-24T13:33:11.000Z,44.17
2024-04-24T13:34:11.000Z,44.2
2024-04-24T13:35:11.000Z,44.2
2024-04-24T13:36:11.000Z,44.31
2024-04-24T13:37:11.000Z,44.09
2024-04-24T13:38:11.000Z,44.55
2024-04-24T13:39:11.000Z,44.5
2024-04-24T13:40:12.000Z,44.57
2024-04-24T13:41:12.000Z,44.7
2024-04-24T13:42:11.000Z,44.89
2024-04-24T13:43:11.000Z,44.88
2024-04-24T13:44:15.000Z,45
2024-04-24T13:45:11.000Z,45.04
2024-04-24T13:46:11.000Z,45.13
2024-04-24T13:47:14.000Z,45.24
2024-04-24T13:48:14.000Z,45.31
2024-04-24T13:49:11.000Z,45.16
2024-04-24T13:50:15.000Z,45.41
2024-04-24T13:51:11.000Z,45.48
2024-04-24T13:52:12.000Z,45.55
2024-04-24T13:53:11.000Z,45.44
2024-04-24T13:54:11.000Z,45.51
2024-04-24T13:55:11.000Z,45.72
2024-04-24T13:56:16.000Z,45.51
2024-04-24T13:57:12.000Z,45.52
2024-04-24T13:58:11.000Z,45.59
2024-04-24T13:59:11.000Z,45.87
2024-04-24T14:00:22.000Z,45.86
2024-04-24T14:01:23.000Z,45.77
2024-04-24T14:02:23.000Z,46.03
2024-04-24T14:03:28.000Z,45.81
2024-04-24T14:04:23.000Z,45.8
2024-04-24T14:05:28.000Z,45.29
2024-04-24T14:06:23.000Z,44.95
2024-04-24T14:07:23.000Z,44.73
2024-04-24T14:08:23.000Z,44.49
2024-04-24T14:09:22.000Z,44.63
2024-04-24T14:10:25.000Z,44.63
2024-04-24T14:11:23.000Z,44.34
2024-04-24T14:12:22.000Z,44.11
2024-04-24T14:13:22.000Z,44.24
2024-04-24T14:14:24.000Z,44.43
2024-04-24T14:15:22.000Z,44.3
2024-04-24T14:16:23.000Z,44.09
2024-04-24T14:17:23.000Z,44.1
2024-04-24T14:18:23.000Z,44.39
2024-04-24T14:19:23.000Z,44.19
2024-04-24T14:20:25.000Z,44.06
2024-04-24T14:21:22.000Z,43.95
2024-04-24T14:22:25.000Z,44.3
2024-04-24T14:23:22.000Z,44.14
2024-04-24T14:24:23.000Z,44.29
2024-04-24T14:25:23.000Z,44.47
2024-04-24T14:26:23.000Z,44.49
2024-04-24T14:27:22.000Z,44.67
2024-04-24T14:28:23.000Z,44.74
2024-04-24T14:29:25.000Z,45.04
2024-04-24T14:30:23.000Z,45.32
2024-04-24T14:31:23.000Z,45.47
2024-04-24T14:32:23.000Z,45.55
2024-04-24T14:33:23.000Z,45.73
2024-04-24T14:34:24.000Z,45.6
2024-04-24T14:35:23.000Z,45.86
2024-04-24T14:36:23.000Z,45.5
2024-04-24T14:37:22.000Z,45.88
2024-04-24T14:38:28.000Z,46
2024-04-24T14:39:23.000Z,46
2024-04-24T14:40:22.000Z,46.13
2024-04-24T14:41:22.000Z,46.14
2024-04-24T14:42:24.000Z,46.29
2024-04-24T14:43:25.000Z,46.74
2024-04-24T14:44:23.000Z,47.14
2024-04-24T14:45:23.000Z,47.02
2024-04-24T14:46:24.000Z,47.18
2024-04-24T14:47:23.000Z,47.41
2024-04-24T14:48:23.000Z,47.43
2024-04-24T14:49:23.000Z,47.23
2024-04-24T14:50:23.000Z,47.26
2024-04-24T14:51:24.000Z,47.34
2024-04-24T14:52:25.000Z,47.54
2024-04-24T14:53:23.000Z,47.12
2024-04-24T14:54:23.000Z,47.04
2024-04-24T14:55:23.000Z,47.12
2024-04-24T14:56:23.000Z,47.49
2024-04-24T14:57:23.000Z,47.43
2024-04-24T14:58:26.000Z,47.48
2024-04-24T14:59:23.000Z,47.63
2024-04-24T15:00:23.000Z,47.66
2024-04-24T15:01:23.000Z,47.71
2024-04-24T15:02:23.000Z,47.72
2024-04-24T15:03:23.000Z,47.61
2024-04-24T15:04:23.000Z,47.73
2024-04-24T15:05:23.000Z,47.95
2024-04-24T15:06:22.000Z,47.92
2024-04-24T15:07:22.000Z,48.4
2024-04-24T15:12:07.000Z,48.33
2024-04-24T15:13:05.000Z,48.35
2024-04-24T15:14:05.000Z,48.67
2024-04-24T15:19:30.000Z,48.76
2024-04-24T15:23:03.000Z,49.57
2024-04-24T15:24:03.000Z,49.47
2024-04-24T15:25:03.000Z,49.65
2024-04-24T15:28:50.000Z,49.67
2024-04-24T15:29:48.000Z,49.36
2024-04-24T15:30:45.000Z,49.51
2024-04-24T15:31:45.000Z,49.48
2024-04-24T15:32:40.000Z,49.72
2024-04-24T15:33:51.000Z,49.59
2024-04-24T15:40:08.000Z,49.45
2024-04-24T15:41:12.000Z,49.3
2024-04-24T15:42:07.000Z,49.74
2024-04-24T15:43:06.000Z,49.59
2024-04-24T15:44:06.000Z,49.59
2024-04-24T15:45:12.000Z,49.38
2024-04-24T15:46:07.000Z,49.33
2024-04-24T15:47:06.000Z,49.53
2024-04-24T15:48:07.000Z,49.34
2024-04-24T15:59:03.000Z,48.98
2024-04-24T15:59:58.000Z,48.86
2024-04-24T16:00:28.000Z,49.28
2024-04-24T16:02:15.000Z,49.28
2024-04-24T16:06:04.000Z,49.61
2024-04-24T16:07:03.000Z,49.73
2024-04-24T16:08:04.000Z,49.81
2024-04-24T16:10:10.000Z,49.71
2024-04-24T16:11:03.000Z,49.53
2024-04-24T16:12:03.000Z,49.56
2024-04-24T16:13:03.000Z,49.6
2024-04-24T16:14:03.000Z,49.64
2024-04-24T16:15:04.000Z,49.46
2024-04-24T16:16:04.000Z,49.44
2024-04-24T16:17:04.000Z,49.48
2024-04-24T16:18:07.000Z,49.6
2024-04-24T16:20:16.000Z,49.66
2024-04-24T16:29:05.000Z,49.8
2024-04-24T16:30:09.000Z,49.96
2024-04-24T16:31:05.000Z,49.98
2024-04-24T16:34:48.000Z,50.05
2024-04-24T16:41:14.000Z,50.68
2024-04-24T16:42:02.000Z,50.76
2024-04-24T16:42:57.000Z,50.99
2024-04-24T16:43:59.000Z,51.17
2024-04-24T16:44:57.000Z,51.23
2024-04-24T16:47:57.000Z,51.9
2024-04-24T16:48:59.000Z,51.51
2024-04-24T16:53:06.000Z,52.26
2024-04-24T16:53:59.000Z,51.98
2024-04-24T17:01:08.000Z,52.98
2024-04-24T17:02:03.000Z,53.06
2024-04-24T17:03:03.000Z,53.38
2024-04-24T17:10:08.000Z,54.51
2024-04-24T17:11:34.000Z,54.52
2024-04-24T17:12:29.000Z,54.68
2024-04-24T17:13:29.000Z,54.83
2024-04-24T17:15:28.000Z,55.02
2024-04-24T17:16:28.000Z,54.96
2024-04-24T17:17:27.000Z,54.92
2024-04-24T17:18:29.000Z,54.91
2024-04-24T17:19:28.000Z,54.93
2024-04-24T17:20:27.000Z,54.93
2024-04-24T17:21:29.000Z,54.91
2024-04-24T17:23:06.000Z,55.24
2024-04-24T17:24:07.000Z,55.08
2024-04-24T17:25:07.000Z,55.29
2024-04-24T17:26:06.000Z,54.99
2024-04-24T17:27:06.000Z,54.98
2024-04-24T18:00:22.000Z,56.41
2024-04-24T18:01:22.000Z,56.24
2024-04-24T18:02:22.000Z,56.18
2024-04-24T18:03:22.000Z,56.45
2024-04-24T18:04:22.000Z,56.53
2024-04-24T18:05:22.000Z,56.69
2024-04-24T18:06:22.000Z,56.67
2024-04-24T18:07:22.000Z,56.09
2024-04-24T18:08:22.000Z,55.66
2024-04-24T18:09:22.000Z,55.6
2024-04-24T18:10:22.000Z,55.18
2024-04-24T18:11:25.000Z,55.58
2024-04-24T18:12:22.000Z,55.69
2024-04-24T18:13:22.000Z,55.68
2024-04-24T18:14:22.000Z,55.54
2024-04-24T18:15:22.000Z,55.65
2024-04-24T18:16:22.000Z,55.37
2024-04-24T18:17:22.000Z,53.57
2024-04-24T18:18:22.000Z,54.29
2024-04-24T18:19:22.000Z,53.77
2024-04-24T18:20:22.000Z,53.95
2024-04-24T18:21:22.000Z,54.23
2024-04-24T18:22:22.000Z,54.34
2024-04-24T18:23:22.000Z,54.12
2024-04-24T18:24:24.000Z,54.35
2024-04-24T18:25:22.000Z,54.63
2024-04-24T18:26:22.000Z,54.73
2024-04-24T18:27:24.000Z,54.73
2024-04-24T18:28:22.000Z,54.67
2024-04-24T18:29:22.000Z,54.93
2024-04-24T18:30:22.000Z,54.64
2024-04-24T18:31:22.000Z,54.68
2024-04-24T18:32:22.000Z,55.15
2024-04-24T18:33:22.000Z,55.13
2024-04-24T18:34:22.000Z,55.06
2024-04-24T18:35:22.000Z,55.1
2024-04-24T18:36:22.000Z,55.07
2024-04-24T18:37:22.000Z,55
2024-04-24T18:38:22.000Z,55.15
2024-04-24T18:39:22.000Z,55.21
2024-04-24T18:40:27.000Z,55.13
2024-04-24T18:41:27.000Z,55.17
2024-04-24T18:42:22.000Z,55.11
2024-04-24T18:43:22.000Z,55.24
2024-04-24T18:44:22.000Z,55.45
2024-04-24T18:45:22.000Z,55.5
2024-04-24T18:46:22.000Z,55.47
2024-04-24T18:47:23.000Z,55.63
2024-04-24T18:48:22.000Z,55.49
2024-04-24T18:49:26.000Z,55.54
2024-04-24T18:50:22.000Z,55.53
2024-04-24T18:51:22.000Z,55.56
2024-04-24T18:52:22.000Z,55.3
2024-04-24T18:53:22.000Z,55.59
2024-04-24T18:54:22.000Z,55.52
2024-04-24T18:55:24.000Z,55.53
2024-04-24T18:56:22.000Z,55.74
2024-04-24T18:57:24.000Z,55.86
2024-04-24T18:58:22.000Z,56.04
2024-04-24T18:59:22.000Z,56
2024-04-24T19:00:22.000Z,56.15
2024-04-24T19:01:23.000Z,55.99
2024-04-24T19:02:22.000Z,56.01
2024-04-24T19:03:22.000Z,56.24
2024-04-24T19:04:22.000Z,56.15
2024-04-24T19:05:24.000Z,56.17
2024-04-24T19:06:22.000Z,56.31
2024-04-24T19:07:22.000Z,56.12
2024-04-24T19:08:22.000Z,56.4
2024-04-24T19:09:22.000Z,56.25
2024-04-24T19:10:22.000Z,56.42
2024-04-24T19:11:24.000Z,56.27
2024-04-24T19:12:25.000Z,56.19
2024-04-24T19:13:24.000Z,56.33
2024-04-24T19:14:22.000Z,56.57
2024-04-24T19:15:22.000Z,56.68
2024-04-24T19:16:22.000Z,56.65
2024-04-24T19:17:23.000Z,56.77
2024-04-24T19:18:22.000Z,56.86
2024-04-24T19:19:25.000Z,57
2024-04-24T19:20:22.000Z,56.77
2024-04-24T19:21:22.000Z,56.8
2024-04-24T19:22:24.000Z,56.81
2024-04-24T19:23:22.000Z,57.09
2024-04-24T19:24:22.000Z,57.15
2024-04-24T19:25:22.000Z,57.14
2024-04-24T19:26:23.000Z,57.08
2024-04-24T19:27:22.000Z,57.03
2024-04-24T19:28:25.000Z,57.02
2024-04-24T19:29:22.000Z,57.13
2024-04-24T19:30:22.000Z,57.05
2024-04-24T19:31:22.000Z,57.01
2024-04-24T19:32:27.000Z,56.91
2024-04-24T19:33:24.000Z,57.21
2024-04-24T19:34:22.000Z,57.21
2024-04-24T19:35:22.000Z,57.22
2024-04-24T19:36:22.000Z,57.33
2024-04-24T19:37:22.000Z,57.05
2024-04-24T19:38:22.000Z,57.27
2024-04-24T19:39:22.000Z,57.3
2024-04-24T19:40:25.000Z,57.04
2024-04-24T19:41:22.000Z,57.39
2024-04-24T19:42:22.000Z,57.24
2024-04-24T19:43:22.000Z,57.03
2024-04-24T19:44:27.000Z,57.2
2024-04-24T19:45:22.000Z,57.17
2024-04-24T19:46:22.000Z,57.04
2024-04-24T19:47:22.000Z,57.11
2024-04-24T19:48:25.000Z,56.88
2024-04-24T19:49:22.000Z,57.09
2024-04-24T19:50:22.000Z,56.88
2024-04-24T19:51:22.000Z,56.91
2024-04-24T19:52:22.000Z,57.2
2024-04-24T19:53:22.000Z,56.95
2024-04-24T19:54:22.000Z,56.87
2024-04-24T19:55:22.000Z,57.02
2024-04-24T19:56:22.000Z,56.9
2024-04-24T19:57:22.000Z,57.04
2024-04-24T19:58:22.000Z,56.81
2024-04-24T19:59:24.000Z,57.07
2024-04-24T20:00:22.000Z,57.16
2024-04-24T20:01:22.000Z,57.06
2024-04-24T20:02:22.000Z,57.15
2024-04-24T20:03:22.000Z,57.08
2024-04-24T20:04:22.000Z,56.95
2024-04-24T20:05:22.000Z,57.07
2024-04-24T20:06:22.000Z,57.29
2024-04-24T20:07:22.000Z,57.2
2024-04-24T20:08:27.000Z,57.11
2024-04-24T20:09:22.000Z,57.19
2024-04-24T20:10:22.000Z,57.21
2024-04-24T20:11:22.000Z,57.2
2024-04-24T20:12:22.000Z,57.1
2024-04-24T20:13:22.000Z,57.24
2024-04-24T20:14:24.000Z,57.21
2024-04-24T20:15:24.000Z,57.27
2024-04-24T20:16:22.000Z,57.44
2024-04-24T20:17:24.000Z,57.43
2024-04-24T20:18:24.000Z,57.47
2024-04-24T20:19:22.000Z,57.43
2024-04-24T20:20:25.000Z,57.22
2024-04-24T20:21:23.000Z,57.47
2024-04-24T20:22:22.000Z,57.55
2024-04-24T20:23:22.000Z,57.26
2024-04-24T20:24:22.000Z,57.33
2024-04-24T20:25:22.000Z,57.69
2024-04-24T20:26:22.000Z,57.42
2024-04-24T20:27:22.000Z,57.36
2024-04-24T20:28:22.000Z,57.6
2024-04-24T20:29:22.000Z,57.81
2024-04-24T20:30:22.000Z,57.74
2024-04-24T20:31:23.000Z,57.71
2024-04-24T20:32:22.000Z,57.78
2024-04-24T20:33:25.000Z,57.87
2024-04-24T20:34:24.000Z,57.59
2024-04-24T20:35:22.000Z,57.98
2024-04-24T20:36:23.000Z,57.87
2024-04-24T20:37:22.000Z,57.93
2024-04-24T20:38:23.000Z,57.96
2024-04-24T20:39:22.000Z,57.68
2024-04-24T20:40:22.000Z,57.64
2024-04-24T20:41:23.000Z,57.82
2024-04-24T20:42:28.000Z,57.8
2024-04-24T20:43:22.000Z,57.81
2024-04-24T20:44:22.000Z,58.04
2024-04-24T20:45:22.000Z,58.06
2024-04-24T20:46:22.000Z,58.08
2024-04-24T20:47:22.000Z,58.08
2024-04-24T20:48:22.000Z,57.93
2024-04-24T20:49:22.000Z,58.19
2024-04-24T20:50:22.000Z,57.96
2024-04-24T20:51:22.000Z,57.88
2024-04-24T20:52:27.000Z,58
2024-04-24T20:53:22.000Z,58.13
2024-04-24T20:54:22.000Z,58.13
2024-04-24T20:55:22.000Z,58.15
2024-04-24T20:56:22.000Z,58.13
2024-04-24T20:57:22.000Z,58.05
2024-04-24T20:58:22.000Z,57.95
2024-04-24T20:59:22.000Z,58.18
2024-04-24T21:00:22.000Z,58.14
2024-04-24T21:01:22.000Z,58.14
2024-04-24T21:02:22.000Z,58.08
2024-04-24T21:03:28.000Z,58.1
2024-04-24T21:04:22.000Z,58.2
2024-04-24T21:05:22.000Z,58.21
2024-04-24T21:06:22.000Z,58.2
2024-04-24T21:07:22.000Z,58.11
2024-04-24T21:08:22.000Z,58.26
2024-04-24T21:09:22.000Z,58.1
2024-04-24T21:10:22.000Z,58.02
2024-04-24T21:11:22.000Z,58.23
2024-04-24T21:12:22.000Z,58.02
2024-04-24T21:13:22.000Z,57.96
2024-04-24T21:14:22.000Z,58.05
2024-04-24T21:15:22.000Z,57.91
2024-04-24T21:16:22.000Z,57.91